Time;durP1;ratioP1;P1;durP2;ratioP2;P2;SDS_P1;SDS_P2;PMS_P1;PMS_P2;Temp;Humidity;BMP_temperature;BMP_pressure;BME280_temperature;BME280_humidity;BME280_pressure;Samples;Min_cycle;Max_cycle;Signal;HPM_P1;HPM_P2
2023/05/04 00:00:15;;;;;;;21.53;9.83;;;11.10;1.00;;;;;;5032024;28;20663;-72
2023/05/04 00:02:41;;;;;;;18.67;10.17;;;11.10;1.00;;;;;;5032757;28;20644;-72
2023/05/04 00:05:07;;;;;;;26.63;10.73;;;11.10;1.00;;;;;;5032215;28;20261;-72
2023/05/04 00:07:33;;;;;;;23.87;10.33;;;11.00;1.00;;;;;;5031255;28;20528;-72
2023/05/04 00:10:00;;;;;;;18.57;10.33;;;;;;;;;;5031800;28;20198;-72
2023/05/04 00:12:26;;;;;;;21.13;10.63;;;11.10;99.90;;;;;;5031238;28;20186;-71
2023/05/04 00:14:51;;;;;;;24.97;11.63;;;11.10;99.90;;;;;;5031611;28;20513;-72
2023/05/04 00:17:17;;;;;;;20.90;11.23;;;11.00;99.90;;;;;;5032304;28;20196;-71
2023/05/04 00:19:44;;;;;;;25.37;11.80;;;10.90;1.00;;;;;;5031978;28;20181;-73
2023/05/04 00:22:10;;;;;;;24.87;11.77;;;10.90;1.00;;;;;;5031670;28;20244;-72
2023/05/04 00:24:36;;;;;;;22.60;10.93;;;10.80;1.00;;;;;;5031335;28;20181;-72
2023/05/04 00:27:02;;;;;;;18.33;10.83;;;10.80;1.00;;;;;;5031485;28;20228;-72
2023/05/04 00:29:27;;;;;;;20.57;10.90;;;10.80;1.00;;;;;;5031817;28;20220;-72
2023/05/04 00:31:53;;;;;;;19.63;11.37;;;10.70;99.90;;;;;;5030950;28;20322;-74
2023/05/04 00:34:18;;;;;;;23.53;11.10;;;10.70;1.00;;;;;;5031959;28;20564;-73
2023/05/04 00:36:45;;;;;;;27.87;11.70;;;10.60;1.00;;;;;;5031463;28;20265;-73
2023/05/04 00:39:11;;;;;;;21.83;10.93;;;10.60;1.00;;;;;;5031307;28;20213;-74
2023/05/04 00:41:36;;;;;;;24.27;11.30;;;10.50;1.00;;;;;;5031286;28;20170;-73
2023/05/04 00:44:03;;;;;;;21.20;11.93;;;10.40;1.00;;;;;;5030208;28;20228;-72
2023/05/04 00:46:29;;;;;;;23.57;11.37;;;11.70;1.00;;;;;;5030715;28;20258;-72
2023/05/04 00:48:55;;;;;;;22.20;11.43;;;10.40;1.00;;;;;;5031968;28;20174;-72
2023/05/04 00:51:23;;;;;;;26.43;11.20;;;10.40;97.40;;;;;;5031256;28;20180;-71
2023/05/04 00:53:49;;;;;;;22.40;11.70;;;10.40;99.90;;;;;;5030693;28;20170;-71
2023/05/04 00:56:16;;;;;;;19.17;10.77;;;10.40;99.90;;;;;;5030702;28;20177;-72
2023/05/04 00:58:42;;;;;;;19.50;10.87;;;10.40;1.00;;;;;;5031462;28;20249;-71
2023/05/04 01:01:08;;;;;;;21.33;10.70;;;10.30;99.90;;;;;;5031430;28;20605;-71
2023/05/04 01:03:33;;;;;;;20.17;11.03;;;10.30;1.00;;;;;;5031560;28;20257;-73
2023/05/04 01:06:18;;;;;;;20.83;11.30;;;10.20;1.00;;;;;;5028967;28;20693;-72
2023/05/04 01:08:56;;;;;;;21.37;11.60;;;10.20;1.00;;;;;;5023894;28;20185;-73
2023/05/04 01:11:31;;;;;;;30.73;11.23;;;10.10;1.00;;;;;;5031516;28;20196;-73
2023/05/04 01:13:57;;;;;;;21.23;11.67;;;10.10;1.00;;;;;;5010795;28;20257;-72
2023/05/04 01:16:23;;;;;;;27.93;11.67;;;;;;;;;;5010717;28;20166;-72
2023/05/04 01:18:49;;;;;;;22.50;11.40;;;10.10;1.00;;;;;;5009894;28;20233;-71
2023/05/04 01:21:14;;;;;;;28.77;12.50;;;10.00;1.00;;;;;;5010542;28;21374;-72
2023/05/04 01:23:40;;;;;;;25.97;11.93;;;10.00;1.00;;;;;;5011698;28;20636;-72
2023/05/04 01:26:31;;;;;;;25.33;11.20;;;10.00;35.20;;;;;;5013448;28;20277;-72
2023/05/04 01:29:18;;;;;;;25.10;11.07;;;10.00;99.90;;;;;;5006353;28;20186;-71
2023/05/04 01:31:45;;;;;;;17.83;10.97;;;10.00;99.90;;;;;;5031469;28;20177;-71
2023/05/04 01:34:12;;;;;;;17.73;10.80;;;10.00;99.90;;;;;;5030718;28;20257;-71
2023/05/04 01:36:38;;;;;;;25.97;11.57;;;9.90;99.90;;;;;;5030410;28;20177;-70
2023/05/04 01:39:04;;;;;;;19.40;11.37;;;9.90;99.90;;;;;;5030420;28;20259;-70
2023/05/04 01:41:29;;;;;;;21.90;11.43;;;9.80;99.90;;;;;;5029824;28;20631;-71
2023/05/04 01:43:56;;;;;;;25.47;10.93;;;9.90;99.90;;;;;;5030277;28;20579;-70
2023/05/04 01:46:22;;;;;;;26.97;11.03;;;9.80;99.90;;;;;;5028116;28;20323;-71
2023/05/04 01:48:47;;;;;;;22.37;11.27;;;9.90;99.90;;;;;;5026089;28;20861;-72
2023/05/04 01:51:13;;;;;;;24.33;11.97;;;9.80;99.90;;;;;;5030506;28;20185;-71
2023/05/04 01:53:39;;;;;;;22.47;11.27;;;9.80;99.90;;;;;;5030265;28;20227;-71
2023/05/04 01:56:06;;;;;;;23.30;11.77;;;9.90;99.90;;;;;;5030320;28;20173;-72
2023/05/04 01:58:32;;;;;;;20.33;11.77;;;;;;;;;;5029242;28;20304;-71
2023/05/04 02:00:58;;;;;;;21.57;10.83;;;9.80;99.90;;;;;;5029754;28;20227;-71
2023/05/04 02:03:24;;;;;;;27.63;11.80;;;9.90;99.90;;;;;;5030232;28;20261;-71
2023/05/04 02:05:50;;;;;;;20.77;12.03;;;10.10;99.90;;;;;;5029607;28;20174;-71
2023/05/04 02:08:16;;;;;;;19.07;11.17;;;9.80;99.90;;;;;;5029659;28;20177;-71
2023/05/04 02:10:42;;;;;;;29.00;11.30;;;9.80;99.90;;;;;;5029196;28;20182;-71
2023/05/04 02:13:07;;;;;;;19.77;10.77;;;9.70;99.90;;;;;;5011610;28;20185;-71
2023/05/04 02:15:33;;;;;;;22.37;10.80;;;9.70;99.90;;;;;;5029833;28;20249;-71
2023/05/04 02:17:58;;;;;;;21.07;11.40;;;9.80;99.90;;;;;;5029623;28;20202;-72
2023/05/04 02:20:24;;;;;;;21.80;10.90;;;9.90;99.90;;;;;;5029836;28;20248;-71
2023/05/04 02:22:50;;;;;;;22.53;10.90;;;9.80;99.90;;;;;;5030268;28;20221;-72
2023/05/04 02:25:16;;;;;;;27.73;12.13;;;9.80;99.90;;;;;;5030713;28;20177;-71
2023/05/04 02:27:42;;;;;;;22.83;11.23;;;;;;;;;;5030225;28;20220;-72
2023/05/04 02:30:08;;;;;;;21.07;11.13;;;11.60;99.90;;;;;;5029528;28;20186;-71
2023/05/04 02:32:34;;;;;;;25.37;10.70;;;9.60;99.90;;;;;;5030172;28;20256;-72
2023/05/04 02:34:59;;;;;;;19.30;11.43;;;9.40;99.90;;;;;;5030582;28;20617;-71
2023/05/04 02:37:25;;;;;;;27.60;11.93;;;9.50;99.90;;;;;;5030132;28;20206;-71
2023/05/04 02:39:50;;;;;;;19.97;11.57;;;9.60;99.90;;;;;;5030338;28;20220;-72
2023/05/04 02:42:16;;;;;;;23.77;11.13;;;9.60;99.90;;;;;;5029959;28;20256;-71
2023/05/04 02:44:42;;;;;;;25.10;11.53;;;9.40;99.90;;;;;;5030051;28;20193;-72
2023/05/04 02:47:08;;;;;;;24.67;11.80;;;11.40;99.90;;;;;;5029416;28;20185;-71
2023/05/04 02:49:34;;;;;;;22.90;11.80;;;9.50;99.90;;;;;;5030102;28;20163;-71
2023/05/04 02:52:00;;;;;;;21.80;12.17;;;9.40;99.90;;;;;;5028774;28;20200;-72
2023/05/04 02:54:25;;;;;;;20.07;12.40;;;9.50;99.90;;;;;;5031520;28;20543;-71
2023/05/04 02:56:51;;;;;;;28.20;12.60;;;9.40;99.90;;;;;;5033362;28;20536;-71
2023/05/04 02:59:16;;;;;;;23.83;12.70;;;9.40;99.90;;;;;;5033252;28;20210;-71
2023/05/04 03:01:42;;;;;;;25.93;12.67;;;9.30;99.90;;;;;;5029306;28;20189;-72
2023/05/04 03:04:07;;;;;;;22.90;12.07;;;9.60;99.90;;;;;;5032616;28;20706;-72
2023/05/04 03:06:33;;;;;;;22.73;11.53;;;9.40;99.90;;;;;;5033531;28;20278;-72
2023/05/04 03:08:59;;;;;;;27.33;12.43;;;9.90;99.90;;;;;;5033260;28;20198;-72
2023/05/04 03:11:24;;;;;;;19.27;12.20;;;9.40;99.90;;;;;;5032934;28;20232;-72
2023/05/04 03:13:50;;;;;;;24.83;11.77;;;9.20;99.90;;;;;;5033117;28;20609;-74
2023/05/04 03:16:16;;;;;;;23.33;12.07;;;9.30;99.90;;;;;;5032313;28;20694;-71
2023/05/04 03:18:41;;;;;;;23.17;11.97;;;9.30;99.90;;;;;;5032407;28;20205;-71
2023/05/04 03:21:07;;;;;;;39.13;12.70;;;9.20;99.90;;;;;;5031493;28;20626;-71
2023/05/04 03:23:32;;;;;;;22.17;12.07;;;9.20;99.90;;;;;;5031840;28;20182;-72
2023/05/04 03:25:58;;;;;;;22.07;12.63;;;9.30;99.90;;;;;;5016945;28;20221;-73
2023/05/04 03:28:24;;;;;;;27.63;12.33;;;9.20;99.90;;;;;;5031165;28;20177;-72
2023/05/04 03:30:49;;;;;;;21.73;12.63;;;9.20;99.90;;;;;;5030677;28;20704;-71
2023/05/04 03:33:15;;;;;;;28.77;12.73;;;9.10;99.90;;;;;;5016573;28;20200;-70
2023/05/04 03:35:40;;;;;;;29.40;12.83;;;9.20;99.90;;;;;;5027961;28;20518;-70
2023/05/04 03:38:06;;;;;;;21.93;11.33;;;9.20;99.90;;;;;;5012904;28;20217;-70
2023/05/04 03:40:35;;;;;;;30.80;12.30;;;9.10;99.90;;;;;;5019674;28;20285;-70
2023/05/04 03:43:00;;;;;;;25.17;13.33;;;9.20;99.90;;;;;;5023102;28;20183;-71
2023/05/04 03:45:27;;;;;;;22.40;12.77;;;9.10;99.90;;;;;;5006646;28;20648;-71
2023/05/04 03:47:56;;;;;;;26.07;12.80;;;9.10;99.90;;;;;;5031486;28;20269;-70
2023/05/04 03:50:22;;;;;;;26.47;12.73;;;9.20;99.90;;;;;;5031541;28;20193;-71
2023/05/04 03:52:48;;;;;;;24.23;12.83;;;9.20;99.90;;;;;;5032682;28;20185;-71
2023/05/04 03:55:14;;;;;;;27.93;13.20;;;9.30;99.90;;;;;;5031226;28;20174;-71
2023/05/04 03:57:40;;;;;;;28.97;13.50;;;9.20;99.90;;;;;;5031308;28;20205;-71
2023/05/04 04:00:07;;;;;;;30.27;12.40;;;9.30;99.90;;;;;;5026676;28;20174;-71
2023/05/04 04:02:33;;;;;;;17.57;11.50;;;9.20;99.90;;;;;;5013657;28;20205;-71
2023/05/04 04:04:59;;;;;;;21.53;12.00;;;9.20;99.90;;;;;;5024331;28;20255;-81
2023/05/04 04:07:24;;;;;;;30.23;13.13;;;9.30;99.90;;;;;;5012207;28;20182;-71
2023/05/04 04:09:51;;;;;;;26.13;13.67;;;9.30;99.90;;;;;;5031264;28;20182;-70
2023/05/04 04:12:19;;;;;;;25.07;13.60;;;9.30;99.90;;;;;;5030137;28;20181;-70
2023/05/04 04:14:47;;;;;;;25.97;14.50;;;9.30;99.90;;;;;;5016052;28;20211;-70
2023/05/04 04:17:13;;;;;;;26.57;14.80;;;9.20;99.90;;;;;;5005397;28;20178;-70
2023/05/04 04:19:39;;;;;;;29.67;14.27;;;9.30;99.90;;;;;;5012085;28;20182;-70
2023/05/04 04:22:05;;;;;;;26.60;13.63;;;9.30;99.90;;;;;;5027655;28;20696;-70
2023/05/04 04:24:31;;;;;;;26.03;14.13;;;9.50;99.90;;;;;;5030684;28;20179;-70
2023/05/04 04:26:56;;;;;;;28.83;14.00;;;9.30;99.90;;;;;;5030654;28;20174;-70
2023/05/04 04:29:22;;;;;;;31.07;14.90;;;9.30;99.90;;;;;;5031081;28;20238;-69
2023/05/04 04:31:48;;;;;;;30.40;15.33;;;;;;;;;;5032026;28;20659;-69
2023/05/04 04:34:13;;;;;;;29.67;15.03;;;9.30;99.90;;;;;;5031557;28;20636;-71
2023/05/04 04:36:39;;;;;;;25.27;14.97;;;9.20;99.90;;;;;;5031489;28;20184;-70
2023/05/04 04:39:05;;;;;;;31.37;15.53;;;;;;;;;;5031306;28;20251;-70
2023/05/04 04:41:31;;;;;;;32.83;16.20;;;9.30;99.90;;;;;;5031454;28;20166;-70
2023/05/04 04:43:57;;;;;;;32.93;15.80;;;9.30;99.90;;;;;;5013024;28;20572;-69
2023/05/04 04:46:23;;;;;;;33.83;16.37;;;9.10;99.90;;;;;;5031551;28;20170;-69
2023/05/04 04:48:49;;;;;;;30.80;14.93;;;9.10;99.90;;;;;;5031300;28;20644;-69
2023/05/04 04:51:14;;;;;;;26.67;14.87;;;9.20;99.90;;;;;;5031541;28;20686;-69
2023/05/04 04:53:40;;;;;;;31.20;15.63;;;9.30;99.90;;;;;;5030675;28;20262;-69
2023/05/04 04:56:08;;;;;;;32.43;14.63;;;9.30;99.90;;;;;;5031272;28;20235;-69
2023/05/04 04:58:34;;;;;;;33.43;14.93;;;9.30;99.90;;;;;;5030948;28;20201;-69
2023/05/04 05:01:03;;;;;;;26.33;14.30;;;9.30;99.90;;;;;;5031425;28;20525;-70
2023/05/04 05:03:28;;;;;;;26.97;15.73;;;9.40;99.90;;;;;;5031361;28;20192;-70
2023/05/04 05:05:54;;;;;;;31.10;15.23;;;9.40;99.90;;;;;;5030307;28;20644;-70
2023/05/04 05:08:20;;;;;;;33.70;15.93;;;9.30;99.90;;;;;;5031488;28;20644;-70
2023/05/04 05:10:46;;;;;;;29.20;15.53;;;9.10;99.90;;;;;;5031140;28;20731;-70
2023/05/04 05:13:11;;;;;;;28.60;15.63;;;9.30;99.90;;;;;;5030752;28;20166;-70
2023/05/04 05:15:37;;;;;;;26.43;15.73;;;9.30;99.90;;;;;;5030485;28;20187;-70
2023/05/04 05:18:03;;;;;;;30.07;15.63;;;9.40;99.90;;;;;;5030956;28;20212;-69
2023/05/04 05:20:28;;;;;;;27.50;15.57;;;9.40;99.90;;;;;;5030569;28;20169;-70
2023/05/04 05:22:54;;;;;;;35.37;15.57;;;9.50;99.90;;;;;;5030404;28;20630;-70
2023/05/04 05:25:19;;;;;;;30.87;16.73;;;9.50;99.90;;;;;;5030387;28;20170;-71
2023/05/04 05:27:45;;;;;;;32.90;16.30;;;9.50;99.90;;;;;;5029155;28;20688;-71
2023/05/04 05:30:11;;;;;;;29.47;15.80;;;9.50;99.90;;;;;;5030082;28;20210;-70
2023/05/04 05:32:37;;;;;;;33.93;15.77;;;9.50;99.90;;;;;;5029193;28;20829;-70
2023/05/04 05:35:04;;;;;;;32.13;16.63;;;9.60;99.90;;;;;;5029965;28;20178;-70
2023/05/04 05:37:31;;;;;;;31.80;16.37;;;9.60;99.90;;;;;;5030625;28;20210;-71
2023/05/04 05:39:57;;;;;;;32.17;16.87;;;9.50;99.90;;;;;;5030432;28;20269;-71
2023/05/04 05:42:22;;;;;;;30.40;16.07;;;9.80;99.90;;;;;;5030299;28;20619;-71
2023/05/04 05:44:48;;;;;;;30.50;16.53;;;9.80;99.90;;;;;;5030947;28;20184;-71
2023/05/04 05:47:14;;;;;;;40.77;16.13;;;9.80;99.90;;;;;;5030232;28;20209;-71
2023/05/04 05:49:40;;;;;;;34.10;16.67;;;9.80;99.90;;;;;;5030769;28;20182;-70
2023/05/04 05:52:05;;;;;;;30.87;16.20;;;10.00;99.90;;;;;;5030401;28;20173;-71
2023/05/04 05:54:31;;;;;;;34.80;16.43;;;9.80;99.90;;;;;;5030672;28;20700;-71
2023/05/04 05:56:57;;;;;;;29.57;16.97;;;9.90;99.90;;;;;;5030422;28;20182;-71
2023/05/04 05:59:23;;;;;;;31.83;16.57;;;10.00;99.90;;;;;;5030658;28;20627;-70
2023/05/04 06:01:48;;;;;;;27.80;16.43;;;10.10;99.90;;;;;;5030724;28;20185;-71
2023/05/04 06:04:14;;;;;;;33.27;17.00;;;10.10;99.90;;;;;;5029529;28;20182;-72
2023/05/04 06:06:40;;;;;;;29.90;15.67;;;10.20;99.90;;;;;;5029704;28;20166;-72
2023/05/04 06:09:06;;;;;;;33.23;15.87;;;10.10;99.90;;;;;;5029016;28;20308;-72
2023/05/04 06:11:31;;;;;;;27.60;16.20;;;9.90;99.90;;;;;;5030234;28;20249;-71
2023/05/04 06:13:57;;;;;;;32.67;15.67;;;10.10;99.90;;;;;;5030102;28;20632;-72
2023/05/04 06:16:23;;;;;;;40.60;16.97;;;10.20;99.90;;;;;;5030401;28;20221;-74
2023/05/04 06:18:48;;;;;;;24.70;15.10;;;10.30;99.90;;;;;;5029835;28;20205;-70
2023/05/04 06:21:14;;;;;;;39.33;16.23;;;10.30;99.90;;;;;;5028620;28;20202;-70
2023/05/04 06:23:40;;;;;;;33.13;16.07;;;10.40;99.90;;;;;;5028520;28;20182;-70
2023/05/04 06:26:06;;;;;;;30.93;15.87;;;10.30;99.90;;;;;;5029025;28;20261;-70
2023/05/04 06:28:33;;;;;;;32.87;16.33;;;10.50;99.90;;;;;;5012686;28;20255;-71
2023/05/04 06:30:59;;;;;;;29.97;15.50;;;10.60;99.90;;;;;;5033581;28;20193;-70
2023/05/04 06:33:25;;;;;;;31.87;17.07;;;10.50;99.90;;;;;;5034074;28;20641;-70
2023/05/04 06:35:51;;;;;;;31.63;16.07;;;10.70;99.90;;;;;;5033225;28;20177;-71
2023/05/04 06:38:17;;;;;;;30.63;16.77;;;10.70;99.90;;;;;;5016180;28;20213;-71
2023/05/04 06:40:43;;;;;;;29.67;16.60;;;10.70;99.90;;;;;;5033844;28;20177;-71
2023/05/04 06:43:08;;;;;;;35.37;16.90;;;10.80;99.90;;;;;;5032198;28;20184;-70
2023/05/04 06:45:34;;;;;;;35.50;17.30;;;10.70;99.90;;;;;;5032808;28;20182;-70
2023/05/04 06:48:01;;;;;;;36.47;17.33;;;10.80;99.90;;;;;;5033518;28;20182;-69
2023/05/04 06:50:27;;;;;;;27.57;15.80;;;10.80;99.90;;;;;;5046095;28;20585;-69
2023/05/04 06:53:02;;;;;;;33.70;15.80;;;10.90;99.90;;;;;;5033350;28;20192;-69
2023/05/04 06:55:27;;;;;;;34.67;16.90;;;10.90;99.90;;;;;;5033169;28;20683;-69
2023/05/04 06:57:53;;;;;;;30.13;15.93;;;11.20;99.90;;;;;;5033261;28;20313;-69
2023/05/04 07:00:19;;;;;;;27.23;16.23;;;11.10;99.90;;;;;;5025438;28;20641;-68
2023/05/04 07:02:45;;;;;;;31.70;16.83;;;11.10;99.90;;;;;;5031729;28;20189;-68
2023/05/04 07:05:11;;;;;;;33.13;16.67;;;11.20;99.90;;;;;;5035393;28;20177;-68
2023/05/04 07:07:37;;;;;;;33.87;16.40;;;11.40;99.90;;;;;;5050388;28;20173;-68
2023/05/04 07:10:03;;;;;;;30.33;16.90;;;11.40;99.90;;;;;;5030619;28;20196;-69
2023/05/04 07:12:29;;;;;;;30.33;15.77;;;12.70;99.90;;;;;;5031163;28;20272;-69
2023/05/04 07:14:55;;;;;;;33.03;16.60;;;11.50;99.90;;;;;;5032927;28;20252;-70
2023/05/04 07:17:24;;;;;;;30.43;16.10;;;11.60;99.90;;;;;;5029545;28;20192;-68
2023/05/04 07:19:51;;;;;;;32.93;15.77;;;11.70;99.90;;;;;;5031371;28;20180;-67
2023/05/04 07:22:17;;;;;;;30.87;14.97;;;11.90;99.90;;;;;;5030039;28;20679;-67
2023/05/04 07:24:42;;;;;;;29.33;15.77;;;12.10;99.90;;;;;;5031876;28;20641;-67
2023/05/04 07:27:09;;;;;;;37.30;16.80;;;12.10;99.90;;;;;;5031329;28;20166;-67
2023/05/04 07:29:35;;;;;;;27.97;16.10;;;12.30;99.90;;;;;;5031907;28;20170;-67
2023/05/04 07:32:00;;;;;;;30.30;16.00;;;12.30;99.90;;;;;;5032020;28;20181;-68
2023/05/04 07:34:26;;;;;;;27.53;15.47;;;12.50;67.50;;;;;;5013370;28;20174;-67
2023/05/04 07:36:52;;;;;;;30.37;15.23;;;12.40;62.30;;;;;;5013404;28;20181;-69
2023/05/04 07:39:17;;;;;;;31.58;14.85;;;12.70;1.00;;;;;;5032289;28;20209;-69
2023/05/04 07:41:43;;;;;;;27.20;14.93;;;12.80;1.00;;;;;;5031425;28;20228;-70
2023/05/04 07:44:10;;;;;;;29.83;15.73;;;13.10;1.00;;;;;;5031975;28;20178;-70
2023/05/04 07:46:37;;;;;;;26.42;14.68;;;13.20;99.90;;;;;;5032593;28;20186;-70
2023/05/04 07:49:03;;;;;;;26.58;15.05;;;13.10;99.90;;;;;;5032663;28;20174;-70
2023/05/04 07:51:28;;;;;;;33.35;15.98;;;13.20;1.00;;;;;;5031903;28;20162;-70
2023/05/04 07:53:54;;;;;;;29.95;15.35;;;13.30;99.90;;;;;;5032134;28;20169;-70
2023/05/04 07:56:20;;;;;;;29.35;15.27;;;13.30;99.90;;;;;;5031737;28;20170;-71
2023/05/04 07:58:46;;;;;;;26.90;15.30;;;13.20;1.00;;;;;;5031545;28;20209;-71
2023/05/04 08:01:11;;;;;;;29.02;15.85;;;13.30;99.90;;;;;;5031169;28;20243;-71
2023/05/04 08:03:37;;;;;;;32.13;16.08;;;13.40;32.20;;;;;;5029878;28;20636;-70
2023/05/04 08:06:03;;;;;;;27.75;14.90;;;13.70;1.00;;;;;;5031105;28;20177;-70
2023/05/04 08:08:29;;;;;;;23.67;14.48;;;13.70;1.00;;;;;;5031096;28;20177;-72
2023/05/04 08:10:55;;;;;;;36.72;16.73;;;13.80;99.90;;;;;;5031116;28;20521;-71
2023/05/04 08:13:20;;;;;;;30.65;15.82;;;14.10;1.00;;;;;;5031090;28;20261;-71
2023/05/04 08:15:46;;;;;;;31.25;16.33;;;14.20;1.00;;;;;;5031633;28;20173;-71
2023/05/04 08:18:11;;;;;;;36.38;15.75;;;14.20;1.00;;;;;;5031531;28;20708;-71
2023/05/04 08:20:37;;;;;;;29.73;15.13;;;14.50;1.00;;;;;;5030348;28;20166;-71
2023/05/04 08:23:03;;;;;;;25.05;15.48;;;14.70;99.90;;;;;;5031000;28;20687;-71
2023/05/04 08:25:29;;;;;;;25.90;14.65;;;15.00;99.90;;;;;;5031633;28;20185;-73
2023/05/04 08:27:55;;;;;;;25.52;14.10;;;15.60;1.00;;;;;;5031257;28;20178;-71
2023/05/04 08:30:21;;;;;;;27.73;14.50;;;16.50;1.00;;;;;;5012913;28;20181;-71
2023/05/04 08:32:49;;;;;;;28.38;15.25;;;17.10;99.90;;;;;;5031634;28;20638;-71
2023/05/04 08:35:15;;;;;;;25.73;13.77;;;17.70;99.90;;;;;;5031862;28;20174;-72
2023/05/04 08:37:41;;;;;;;23.13;13.80;;;17.90;1.00;;;;;;5014177;28;20304;-72
2023/05/04 08:40:07;;;;;;;26.27;13.88;;;17.90;1.00;;;;;;5032141;28;20241;-72
2023/05/04 08:42:33;;;;;;;26.65;13.90;;;18.00;1.00;;;;;;5031905;28;20169;-72
2023/05/04 08:44:59;;;;;;;27.25;14.43;;;18.20;99.90;;;;;;5031676;28;20227;-72
2023/05/04 08:47:26;;;;;;;24.42;13.65;;;18.30;99.90;;;;;;5031959;28;20162;-72
2023/05/04 08:49:55;;;;;;;24.52;15.15;;;17.40;99.90;;;;;;5031100;28;20169;-71
2023/05/04 08:52:25;;;;;;;23.52;13.82;;;16.50;1.00;;;;;;5030805;28;20534;-71
2023/05/04 08:54:53;;;;;;;23.67;14.23;;;16.90;99.90;;;;;;5031310;28;20178;-72
2023/05/04 08:57:21;;;;;;;24.88;13.85;;;17.40;99.90;;;;;;5031300;28;20162;-71
2023/05/04 08:59:51;;;;;;;26.25;14.07;;;17.50;1.00;;;;;;5031390;28;20174;-72
2023/05/04 09:02:20;;;;;;;22.35;13.82;;;17.20;1.00;;;;;;5014443;28;20175;-71
2023/05/04 09:04:45;;;;;;;25.48;14.40;;;17.10;1.00;;;;;;5011877;28;20171;-71
2023/05/04 09:07:11;;;;;;;24.23;14.32;;;17.00;6.70;;;;;;5011961;28;20169;-71
2023/05/04 09:09:37;;;;;;;26.90;14.85;;;16.90;7.30;;;;;;5011773;28;20593;-72
2023/05/04 09:12:03;;;;;;;28.55;15.02;;;17.00;99.90;;;;;;5011673;28;20202;-71
2023/05/04 09:14:33;;;;;;;26.58;14.15;;;16.50;1.00;;;;;;5011828;28;20268;-72
2023/05/04 09:17:00;;;;;;;23.80;15.07;;;16.50;1.00;;;;;;5011592;28;20199;-72
2023/05/04 09:19:32;;;;;;;28.33;13.98;;;16.70;1.00;;;;;;5011475;28;20249;-71
2023/05/04 09:21:59;;;;;;;28.58;14.50;;;16.70;99.90;;;;;;5011630;28;20228;-71
2023/05/04 09:24:29;;;;;;;29.80;13.93;;;17.20;99.90;;;;;;5011457;28;20637;-71
2023/05/04 09:26:55;;;;;;;28.13;14.52;;;18.10;1.00;;;;;;4994323;28;20200;-72
2023/05/04 09:29:22;;;;;;;24.70;13.63;;;18.60;99.90;;;;;;5011468;28;20194;-70
2023/05/04 09:31:50;;;;;;;25.98;14.27;;;18.90;98.90;;;;;;5011275;28;20727;-71
2023/05/04 09:34:21;;;;;;;30.42;14.13;;;18.90;1.00;;;;;;5011284;28;20167;-71
2023/05/04 09:37:00;;;;;;;25.73;13.32;;;19.10;1.00;;;;;;5011237;28;20189;-71
2023/05/04 09:39:26;;;;;;;24.05;14.60;;;18.30;1.00;;;;;;5011060;28;20221;-72
2023/05/04 09:41:52;;;;;;;29.55;14.10;;;18.10;1.00;;;;;;4993414;28;20179;-71
2023/05/04 09:44:20;;;;;;;27.95;15.23;;;18.20;99.90;;;;;;5011064;28;20224;-71
2023/05/04 09:46:58;;;;;;;23.90;13.73;;;18.70;1.00;;;;;;5010930;28;20594;-71
2023/05/04 09:49:34;;;;;;;26.30;15.07;;;19.10;1.00;;;;;;5011082;28;20205;-72
2023/05/04 09:52:01;;;;;;;26.48;14.52;;;19.10;1.00;;;;;;5011139;28;20169;-71
2023/05/04 09:54:33;;;;;;;29.98;15.70;;;19.00;1.00;;;;;;5011025;28;20182;-71
2023/05/04 09:57:13;;;;;;;30.60;14.48;;;19.30;1.00;;;;;;5011118;28;20194;-71
2023/05/04 09:59:39;;;;;;;24.17;13.90;;;19.50;99.90;;;;;;5011019;28;20186;-71
2023/05/04 10:02:06;;;;;;;23.30;14.38;;;20.00;99.90;;;;;;5025915;28;20182;-71
2023/05/04 10:04:38;;;;;;;25.98;14.93;;;20.30;99.90;;;;;;5035078;28;20170;-71
2023/05/04 10:07:04;;;;;;;27.73;15.60;;;20.40;99.90;;;;;;5034915;28;20170;-71
2023/05/04 10:09:31;;;;;;;24.65;16.05;;;20.30;99.90;;;;;;5034787;28;20212;-71
2023/05/04 10:12:04;;;;;;;25.42;15.73;;;20.50;32.80;;;;;;5034660;28;20219;-71
2023/05/04 10:14:32;;;;;;;24.67;13.48;;;21.00;8.90;;;;;;5034667;28;20208;-71
2023/05/04 10:17:20;;;;;;;29.48;13.25;;;20.90;1.00;;;;;;5034691;28;20166;-71
2023/05/04 10:20:03;;;;;;;27.13;12.10;;;21.40;1.00;;;;;;5034560;28;20194;-72
2023/05/04 10:22:48;;;;;;;25.08;12.55;;;22.20;1.00;;;;;;5034255;28;20225;-71
2023/05/04 10:25:39;;;;;;;26.40;13.63;;;21.60;99.90;;;;;;5034653;28;20202;-73
2023/05/04 10:28:18;;;;;;;25.70;12.90;;;21.10;1.00;;;;;;5034417;28;20190;-71
2023/05/04 10:30:44;;;;;;;25.17;12.77;;;20.80;1.00;;;;;;5034420;28;20680;-71
2023/05/04 10:33:10;;;;;;;23.73;13.05;;;20.30;1.00;;;;;;5034327;28;20170;-71
2023/05/04 10:35:37;;;;;;;21.88;12.73;;;19.40;87.90;;;;;;5034334;28;20170;-71
2023/05/04 10:38:03;;;;;;;24.00;13.38;;;19.40;90.60;;;;;;5034183;28;20221;-71
2023/05/04 10:40:36;;;;;;;25.30;13.80;;;19.30;1.00;;;;;;5034343;28;20169;-71
2023/05/04 10:43:03;;;;;;;25.40;13.98;;;19.50;1.00;;;;;;5016376;28;20174;-71
2023/05/04 10:45:36;;;;;;;21.52;12.55;;;19.40;1.00;;;;;;5034096;28;20174;-71
2023/05/04 10:48:01;;;;;;;21.48;12.60;;;19.60;99.90;;;;;;5034286;28;20178;-72
2023/05/04 10:50:27;;;;;;;23.95;12.05;;;19.90;99.90;;;;;;5033919;28;20173;-71
2023/05/04 10:52:53;;;;;;;25.05;11.65;;;20.20;48.90;;;;;;5034050;28;20694;-71
2023/05/04 10:55:20;;;;;;;19.83;11.15;;;20.70;1.00;;;;;;5033909;28;20823;-71
2023/05/04 10:57:51;;;;;;;22.45;11.35;;;21.20;1.00;;;;;;5034106;28;20213;-71
2023/05/04 11:00:18;;;;;;;22.40;11.65;;;21.50;1.00;;;;;;5033446;28;20185;-72
2023/05/04 11:02:45;;;;;;;18.83;11.55;;;21.20;1.00;;;;;;5014111;28;20194;-71
2023/05/04 11:05:16;;;;;;;26.40;11.93;;;21.20;1.00;;;;;;5014095;28;20601;-71
2023/05/04 11:07:42;;;;;;;22.27;11.55;;;21.50;1.00;;;;;;5014106;28;20179;-71
2023/05/04 11:10:23;;;;;;;21.10;11.38;;;21.40;1.00;;;;;;5013826;28;20648;-71
2023/05/04 11:12:49;;;;;;;21.50;11.15;;;21.00;1.00;;;;;;4996372;28;20232;-71
2023/05/04 11:15:15;;;;;;;18.30;10.70;;;20.10;1.00;;;;;;5013418;28;20167;-71
2023/05/04 11:17:45;;;;;;;16.92;10.15;;;19.10;99.90;;;;;;5013827;28;20693;-71
2023/05/04 11:20:11;;;;;;;19.50;10.90;;;18.50;1.00;;;;;;5013767;28;20174;-71
2023/05/04 11:22:36;;;;;;;18.17;10.93;;;18.60;1.00;;;;;;5013427;28;20222;-71
2023/05/04 11:25:02;;;;;;;21.13;10.27;;;18.40;1.00;;;;;;5013613;28;20228;-71
2023/05/04 11:27:29;;;;;;;19.65;11.38;;;18.70;99.90;;;;;;5013485;28;20182;-69
2023/05/04 11:29:59;;;;;;;24.85;11.85;;;18.60;1.00;;;;;;5013439;28;20169;-70
2023/05/04 11:32:42;;;;;;;22.80;11.50;;;18.40;99.90;;;;;;5013475;28;20816;-70
2023/05/04 11:35:18;;;;;;;24.52;12.68;;;18.40;99.90;;;;;;5013257;28;20179;-70
2023/05/04 11:37:45;;;;;;;26.85;12.00;;;18.70;99.90;;;;;;5013080;28;20210;-71
2023/05/04 11:40:16;;;;;;;24.98;12.20;;;19.00;99.90;;;;;;5013164;28;20213;-71
2023/05/04 11:42:42;;;;;;;23.13;12.25;;;18.80;1.00;;;;;;5011922;28;20159;-71
2023/05/04 11:45:15;;;;;;;24.45;12.02;;;18.60;99.90;;;;;;5012461;28;20178;-71
2023/05/04 11:47:43;;;;;;;21.38;12.48;;;18.70;99.90;;;;;;5015995;28;20170;-71
2023/05/04 11:50:10;;;;;;;20.05;11.70;;;18.50;1.00;;;;;;5014725;28;20539;-70
2023/05/04 11:52:39;;;;;;;18.65;11.77;;;18.50;1.00;;;;;;5031400;28;20174;-70
2023/05/04 11:55:12;;;;;;;23.77;12.07;;;18.40;1.00;;;;;;5031803;28;20537;-70
2023/05/04 11:57:38;;;;;;;21.27;12.02;;;18.40;1.00;;;;;;5032384;28;20251;-70
2023/05/04 12:00:05;;;;;;;25.25;12.57;;;18.30;1.00;;;;;;5032408;28;20634;-70
2023/05/04 12:02:32;;;;;;;24.50;12.32;;;18.40;1.00;;;;;;5032135;28;20174;-71
2023/05/04 12:04:58;;;;;;;24.00;12.50;;;18.30;99.90;;;;;;5031514;28;20248;-70
2023/05/04 12:07:24;;;;;;;22.95;12.73;;;18.30;99.90;;;;;;5031877;28;20272;-70
2023/05/04 12:09:49;;;;;;;28.73;11.57;;;18.30;99.90;;;;;;5031444;28;20174;-71
2023/05/04 12:12:17;;;;;;;24.05;12.32;;;18.40;99.90;;;;;;5030971;28;20197;-67
2023/05/04 12:14:55;;;;;;;25.60;12.43;;;18.30;99.90;;;;;;5030170;28;20188;-67
2023/05/04 12:17:22;;;;;;;18.70;11.18;;;18.60;99.90;;;;;;5030543;28;20185;-67
2023/05/04 12:19:56;;;;;;;18.08;11.90;;;18.80;1.00;;;;;;5032099;28;20538;-67
2023/05/04 12:22:34;;;;;;;22.10;11.68;;;18.80;1.00;;;;;;5030784;28;20232;-67
2023/05/04 12:25:00;;;;;;;22.38;11.82;;;18.80;1.00;;;;;;5032347;28;20189;-68
2023/05/04 12:27:26;;;;;;;24.17;12.18;;;18.30;87.60;;;;;;5031165;28;20193;-68
2023/05/04 12:29:52;;;;;;;26.08;12.15;;;18.60;1.00;;;;;;5031541;28;20280;-68
2023/05/04 12:32:19;;;;;;;23.85;11.60;;;18.60;90.90;;;;;;5031800;28;20199;-69
2023/05/04 12:34:44;;;;;;;20.77;11.30;;;18.50;99.90;;;;;;5031331;28;20197;-68